Brookline, New Hampshire
Current Conditions -  °F | °C
As of 2:51 PM on Monday 24 Nov 2014 (Local Time) from KASH Reporting Station
Scattered Clouds Scattered Clouds  
Wind Chill: 19°   Ceiling: Unl
Heat Index: 19°   Visibility: 10mi
Dew Point: 16°   Wind: 10mph
Humidity: 81%   Direction: 200°SSW
Pressure: 29.56"   Gusts: 21mph
Location:  42.73°N, 71.66°W
Report Text: KASH 241951Z 20009G18KT 10SM SCT050 19/16 A2956 RMK AO2 T01940161 SLP255
Loading
Personal Weather Stations






























Interactive Weather Map New forecast layout! Learn more

10-Day Weather Forecast

Advertisements
Track Severe Weather on mobile